sensor_id;sensor_type;location;lat;lon;timestamp;pressure;altitude;pressure_sealevel;temperature;humidity
45369;BME280;51342;55.250;37.668;2023-02-13T00:04:01;99974.91;;;-11.23;67.79
45369;BME280;51342;55.250;37.668;2023-02-13T00:06:32;99961.78;;;-11.28;67.80
45369;BME280;51342;55.250;37.668;2023-02-13T00:09:04;99962.25;;;-11.36;67.93
45369;BME280;51342;55.250;37.668;2023-02-13T00:11:36;99959.31;;;-11.39;67.86
45369;BME280;51342;55.250;37.668;2023-02-13T00:14:07;99960.00;;;-11.40;68.09
45369;BME280;51342;55.250;37.668;2023-02-13T00:16:38;99960.00;;;-11.40;68.00
45369;BME280;51342;55.250;37.668;2023-02-13T00:19:10;99965.91;;;-11.39;67.80
45369;BME280;51342;55.250;37.668;2023-02-13T00:21:41;99951.84;;;-11.44;67.66
45369;BME280;51342;55.250;37.668;2023-02-13T00:24:13;99937.78;;;-11.44;67.97
45369;BME280;51342;55.250;37.668;2023-02-13T00:26:45;99928.00;;;-11.42;67.74
45369;BME280;51342;55.250;37.668;2023-02-13T00:29:16;99924.59;;;-11.43;67.89
45369;BME280;51342;55.250;37.668;2023-02-13T00:31:48;99909.16;;;-11.46;67.88
45369;BME280;51342;55.250;37.668;2023-02-13T00:34:19;99898.28;;;-11.46;67.82
45369;BME280;51342;55.250;37.668;2023-02-13T00:36:51;99898.31;;;-11.52;67.86
45369;BME280;51342;55.250;37.668;2023-02-13T00:39:22;99910.09;;;-11.45;67.73
45369;BME280;51342;55.250;37.668;2023-02-13T00:41:54;99889.47;;;-11.50;67.74
45369;BME280;51342;55.250;37.668;2023-02-13T00:44:25;99892.84;;;-11.44;67.78
45369;BME280;51342;55.250;37.668;2023-02-13T00:46:58;99882.63;;;-11.40;67.81
45369;BME280;51342;55.250;37.668;2023-02-13T00:49:29;99888.50;;;-11.34;67.68
45369;BME280;51342;55.250;37.668;2023-02-13T00:52:01;99890.50;;;-11.31;67.66
45369;BME280;51342;55.250;37.668;2023-02-13T00:54:32;99877.81;;;-11.33;67.64
45369;BME280;51342;55.250;37.668;2023-02-13T00:57:03;99880.03;;;-11.29;67.57
45369;BME280;51342;55.250;37.668;2023-02-13T00:59:35;99880.47;;;-11.26;67.51
45369;BME280;51342;55.250;37.668;2023-02-13T01:02:06;99880.94;;;-11.23;67.55
45369;BME280;51342;55.250;37.668;2023-02-13T01:04:38;99872.97;;;-11.20;67.24
45369;BME280;51342;55.250;37.668;2023-02-13T01:07:09;99870.00;;;-11.23;67.29
45369;BME280;51342;55.250;37.668;2023-02-13T01:09:40;99866.19;;;-11.27;67.51
45369;BME280;51342;55.250;37.668;2023-02-13T01:12:12;99856.66;;;-11.29;67.66
45369;BME280;51342;55.250;37.668;2023-02-13T01:14:43;99857.78;;;-11.22;67.56
45369;BME280;51342;55.250;37.668;2023-02-13T01:17:15;99855.44;;;-11.14;67.48
45369;BME280;51342;55.250;37.668;2023-02-13T01:19:46;99848.16;;;-11.13;67.43
45369;BME280;51342;55.250;37.668;2023-02-13T01:22:18;99844.53;;;-11.09;67.64
45369;BME280;51342;55.250;37.668;2023-02-13T01:24:49;99846.50;;;-11.01;67.59
45369;BME280;51342;55.250;37.668;2023-02-13T01:27:21;99839.91;;;-11.01;67.56
45369;BME280;51342;55.250;37.668;2023-02-13T01:29:52;99848.00;;;-10.90;67.42
45369;BME280;51342;55.250;37.668;2023-02-13T01:32:24;99851.63;;;-10.83;67.45
45369;BME280;51342;55.250;37.668;2023-02-13T01:34:55;99840.94;;;-10.82;67.38
45369;BME280;51342;55.250;37.668;2023-02-13T01:37:26;99840.63;;;-10.78;67.64
45369;BME280;51342;55.250;37.668;2023-02-13T01:39:58;99844.03;;;-10.72;67.44
45369;BME280;51342;55.250;37.668;2023-02-13T01:42:31;99835.56;;;-10.66;67.53
45369;BME280;51342;55.250;37.668;2023-02-13T01:45:28;99836.44;;;-10.60;67.63
45369;BME280;51342;55.250;37.668;2023-02-13T01:53:39;99823.16;;;-10.48;67.67
45369;BME280;51342;55.250;37.668;2023-02-13T01:56:26;99818.56;;;-10.45;67.79
45369;BME280;51342;55.250;37.668;2023-02-13T01:59:02;99819.63;;;-10.37;67.90
45369;BME280;51342;55.250;37.668;2023-02-13T02:01:36;99805.25;;;-10.33;67.89
45369;BME280;51342;55.250;37.668;2023-02-13T02:04:34;99789.34;;;-10.33;67.86
45369;BME280;51342;55.250;37.668;2023-02-13T02:07:19;99798.09;;;-10.43;68.11
45369;BME280;51342;55.250;37.668;2023-02-13T02:09:57;99790.41;;;-10.26;68.08
45369;BME280;51342;55.250;37.668;2023-02-13T02:12:36;99792.13;;;-10.19;68.05
45369;BME280;51342;55.250;37.668;2023-02-13T02:15:11;99786.16;;;-10.14;68.02
45369;BME280;51342;55.250;37.668;2023-02-13T02:17:43;99788.59;;;-10.08;68.24
45369;BME280;51342;55.250;37.668;2023-02-13T02:23:33;99784.13;;;-9.98;68.37
45369;BME280;51342;55.250;37.668;2023-02-13T02:45:53;99736.06;;;-9.41;69.31
45369;BME280;51342;55.250;37.668;2023-02-13T02:48:31;99724.13;;;-9.36;69.16
45369;BME280;51342;55.250;37.668;2023-02-13T02:51:37;99735.56;;;-9.25;69.48
45369;BME280;51342;55.250;37.668;2023-02-13T02:57:10;99740.94;;;-9.04;69.54
45369;BME280;51342;55.250;37.668;2023-02-13T02:59:45;99734.41;;;-8.96;69.95
45369;BME280;51342;55.250;37.668;2023-02-13T03:02:35;99732.75;;;-8.90;69.95
45369;BME280;51342;55.250;37.668;2023-02-13T03:05:28;99728.31;;;-8.86;70.11
45369;BME280;51342;55.250;37.668;2023-02-13T03:08:19;99715.19;;;-8.77;70.29
45369;BME280;51342;55.250;37.668;2023-02-13T03:11:10;99700.75;;;-8.73;70.23
45369;BME280;51342;55.250;37.668;2023-02-13T03:14:02;99695.41;;;-8.69;70.51
45369;BME280;51342;55.250;37.668;2023-02-13T03:16:36;99698.44;;;-8.59;70.49
45369;BME280;51342;55.250;37.668;2023-02-13T03:25:35;99678.56;;;-8.44;70.84
45369;BME280;51342;55.250;37.668;2023-02-13T03:34:08;99690.03;;;-8.27;71.20
45369;BME280;51342;55.250;37.668;2023-02-13T03:36:59;99681.69;;;-8.20;71.33
45369;BME280;51342;55.250;37.668;2023-02-13T03:40:09;99675.66;;;-8.15;71.29
45369;BME280;51342;55.250;37.668;2023-02-13T03:42:52;99673.03;;;-8.09;71.28
45369;BME280;51342;55.250;37.668;2023-02-13T03:45:45;99667.69;;;-8.05;71.32
45369;BME280;51342;55.250;37.668;2023-02-13T03:48:28;99654.31;;;-7.98;71.63
45369;BME280;51342;55.250;37.668;2023-02-13T03:51:51;99656.47;;;-7.94;71.35
45369;BME280;51342;55.250;37.668;2023-02-13T03:54:28;99654.06;;;-7.87;71.60
45369;BME280;51342;55.250;37.668;2023-02-13T03:57:23;99653.72;;;-7.83;71.89
45369;BME280;51342;55.250;37.668;2023-02-13T04:00:15;99648.69;;;-7.83;71.84
45369;BME280;51342;55.250;37.668;2023-02-13T04:03:12;99646.06;;;-7.78;71.93
45369;BME280;51342;55.250;37.668;2023-02-13T04:05:52;99634.63;;;-7.76;71.92
45369;BME280;51342;55.250;37.668;2023-02-13T04:08:26;99634.69;;;-7.68;71.96
45369;BME280;51342;55.250;37.668;2023-02-13T04:11:06;99623.72;;;-7.69;72.13
45369;BME280;51342;55.250;37.668;2023-02-13T04:16:41;99614.41;;;-7.70;72.14
45369;BME280;51342;55.250;37.668;2023-02-13T04:19:14;99612.66;;;-7.64;72.37
45369;BME280;51342;55.250;37.668;2023-02-13T04:21:48;99614.28;;;-7.64;72.37
45369;BME280;51342;55.250;37.668;2023-02-13T04:24:26;99625.97;;;-7.58;72.53
45369;BME280;51342;55.250;37.668;2023-02-13T04:26:58;99609.88;;;-7.53;72.51
45369;BME280;51342;55.250;37.668;2023-02-13T04:29:29;99602.69;;;-7.50;72.54
45369;BME280;51342;55.250;37.668;2023-02-13T04:32:00;99603.47;;;-7.43;72.65
45369;BME280;51342;55.250;37.668;2023-02-13T04:34:32;99597.94;;;-7.41;72.72
45369;BME280;51342;55.250;37.668;2023-02-13T04:37:03;99607.66;;;-7.37;72.79
45369;BME280;51342;55.250;37.668;2023-02-13T04:39:34;99613.94;;;-7.33;72.74
45369;BME280;51342;55.250;37.668;2023-02-13T04:42:06;99590.09;;;-7.30;72.76
45369;BME280;51342;55.250;37.668;2023-02-13T04:44:37;99590.28;;;-7.28;72.99
45369;BME280;51342;55.250;37.668;2023-02-13T04:47:08;99579.00;;;-7.25;72.93
45369;BME280;51342;55.250;37.668;2023-02-13T04:49:40;99572.56;;;-7.23;72.99
45369;BME280;51342;55.250;37.668;2023-02-13T04:52:12;99575.31;;;-7.14;73.11
45369;BME280;51342;55.250;37.668;2023-02-13T04:54:45;99571.53;;;-7.10;72.96
45369;BME280;51342;55.250;37.668;2023-02-13T04:57:16;99568.69;;;-7.06;73.04
45369;BME280;51342;55.250;37.668;2023-02-13T04:59:48;99553.44;;;-7.08;73.12
45369;BME280;51342;55.250;37.668;2023-02-13T05:02:19;99556.69;;;-7.02;73.16
45369;BME280;51342;55.250;37.668;2023-02-13T05:04:51;99561.38;;;-6.98;73.20
45369;BME280;51342;55.250;37.668;2023-02-13T05:07:22;99551.34;;;-6.98;73.35
45369;BME280;51342;55.250;37.668;2023-02-13T05:09:54;99548.44;;;-6.94;73.30
45369;BME280;51342;55.250;37.668;2023-02-13T05:12:25;99537.66;;;-6.93;73.38
45369;BME280;51342;55.250;37.668;2023-02-13T05:14:56;99534.81;;;-6.88;73.42
45369;BME280;51342;55.250;37.668;2023-02-13T05:17:28;99538.81;;;-6.83;73.59
45369;BME280;51342;55.250;37.668;2023-02-13T05:19:59;99530.53;;;-6.82;73.82
45369;BME280;51342;55.250;37.668;2023-02-13T05:22:31;99526.06;;;-6.78;73.58
45369;BME280;51342;55.250;37.668;2023-02-13T05:25:21;99527.34;;;-6.74;73.65
45369;BME280;51342;55.250;37.668;2023-02-13T05:27:52;99518.69;;;-6.76;73.74
45369;BME280;51342;55.250;37.668;2023-02-13T05:30:24;99530.59;;;-6.68;73.70
45369;BME280;51342;55.250;37.668;2023-02-13T05:32:55;99514.06;;;-6.66;73.88
45369;BME280;51342;55.250;37.668;2023-02-13T05:35:27;99517.84;;;-6.62;74.01
45369;BME280;51342;55.250;37.668;2023-02-13T05:37:58;99501.88;;;-6.63;73.98
45369;BME280;51342;55.250;37.668;2023-02-13T05:40:30;99511.22;;;-6.55;73.98
45369;BME280;51342;55.250;37.668;2023-02-13T05:43:01;99499.00;;;-6.52;74.00
45369;BME280;51342;55.250;37.668;2023-02-13T05:45:32;99497.91;;;-6.47;74.06
45369;BME280;51342;55.250;37.668;2023-02-13T05:48:04;99492.72;;;-6.41;74.00
45369;BME280;51342;55.250;37.668;2023-02-13T05:50:35;99482.28;;;-6.37;74.21
45369;BME280;51342;55.250;37.668;2023-02-13T05:53:07;99492.91;;;-6.32;74.13
45369;BME280;51342;55.250;37.668;2023-02-13T05:55:38;99491.69;;;-6.29;74.51
45369;BME280;51342;55.250;37.668;2023-02-13T05:58:09;99494.72;;;-6.24;74.33
45369;BME280;51342;55.250;37.668;2023-02-13T06:00:41;99483.56;;;-6.19;74.16
45369;BME280;51342;55.250;37.668;2023-02-13T06:03:13;99494.00;;;-6.16;74.16
45369;BME280;51342;55.250;37.668;2023-02-13T06:05:45;99490.41;;;-6.11;74.23
45369;BME280;51342;55.250;37.668;2023-02-13T06:08:16;99488.97;;;-6.09;74.16
45369;BME280;51342;55.250;37.668;2023-02-13T06:10:48;99484.66;;;-6.10;74.26
45369;BME280;51342;55.250;37.668;2023-02-13T06:13:20;99486.09;;;-6.05;74.12
45369;BME280;51342;55.250;37.668;2023-02-13T06:15:51;99488.28;;;-6.01;74.42
45369;BME280;51342;55.250;37.668;2023-02-13T06:18:23;99492.56;;;-6.00;74.25
45369;BME280;51342;55.250;37.668;2023-02-13T06:20:54;99483.41;;;-5.99;74.48
45369;BME280;51342;55.250;37.668;2023-02-13T06:23:26;99478.00;;;-5.95;74.52
45369;BME280;51342;55.250;37.668;2023-02-13T06:26:08;99485.91;;;-5.92;74.43
45369;BME280;51342;55.250;37.668;2023-02-13T06:28:40;99477.06;;;-5.89;74.45
45369;BME280;51342;55.250;37.668;2023-02-13T06:31:11;99481.03;;;-5.83;74.45
45369;BME280;51342;55.250;37.668;2023-02-13T06:33:42;99479.00;;;-5.79;74.68
45369;BME280;51342;55.250;37.668;2023-02-13T06:36:14;99473.78;;;-5.73;74.45
45369;BME280;51342;55.250;37.668;2023-02-13T06:38:45;99471.47;;;-5.72;74.50
45369;BME280;51342;55.250;37.668;2023-02-13T06:41:16;99471.63;;;-5.70;74.44
45369;BME280;51342;55.250;37.668;2023-02-13T06:43:49;99468.75;;;-5.66;74.49
45369;BME280;51342;55.250;37.668;2023-02-13T06:46:21;99471.97;;;-5.60;74.47
45369;BME280;51342;55.250;37.668;2023-02-13T06:48:53;99469.81;;;-5.57;74.54
45369;BME280;51342;55.250;37.668;2023-02-13T06:51:24;99471.06;;;-5.53;74.51
45369;BME280;51342;55.250;37.668;2023-02-13T06:53:56;99466.88;;;-5.46;74.65
45369;BME280;51342;55.250;37.668;2023-02-13T06:56:27;99463.84;;;-5.43;74.69
45369;BME280;51342;55.250;37.668;2023-02-13T06:58:58;99470.66;;;-5.35;74.57
45369;BME280;51342;55.250;37.668;2023-02-13T07:01:30;99461.81;;;-5.31;74.58
45369;BME280;51342;55.250;37.668;2023-02-13T07:04:02;99444.00;;;-5.33;74.65
45369;BME280;51342;55.250;37.668;2023-02-13T07:06:34;99445.97;;;-5.30;74.60
45369;BME280;51342;55.250;37.668;2023-02-13T07:09:05;99427.63;;;-5.37;74.68
45369;BME280;51342;55.250;37.668;2023-02-13T07:11:37;99433.00;;;-5.26;74.82
45369;BME280;51342;55.250;37.668;2023-02-13T07:14:09;99430.81;;;-5.23;74.61
45369;BME280;51342;55.250;37.668;2023-02-13T07:16:40;99429.69;;;-5.18;74.56
45369;BME280;51342;55.250;37.668;2023-02-13T07:19:12;99435.59;;;-5.11;74.73
45369;BME280;51342;55.250;37.668;2023-02-13T07:21:44;99427.50;;;-5.08;74.50
45369;BME280;51342;55.250;37.668;2023-02-13T07:24:15;99418.13;;;-5.09;74.51
45369;BME280;51342;55.250;37.668;2023-02-13T07:26:47;99413.81;;;-5.10;74.36
45369;BME280;51342;55.250;37.668;2023-02-13T07:29:18;99413.78;;;-5.03;74.82
45369;BME280;51342;55.250;37.668;2023-02-13T07:31:49;99401.16;;;-5.03;74.58
45369;BME280;51342;55.250;37.668;2023-02-13T07:34:21;99402.38;;;-4.99;74.57
45369;BME280;51342;55.250;37.668;2023-02-13T07:36:53;99398.59;;;-4.96;74.75
45369;BME280;51342;55.250;37.668;2023-02-13T07:39:24;99390.97;;;-4.89;74.67
45369;BME280;51342;55.250;37.668;2023-02-13T07:41:55;99395.66;;;-4.85;74.60
45369;BME280;51342;55.250;37.668;2023-02-13T07:44:30;99397.06;;;-4.80;74.86
45369;BME280;51342;55.250;37.668;2023-02-13T07:47:02;99395.78;;;-4.76;74.29
45369;BME280;51342;55.250;37.668;2023-02-13T07:49:33;99387.06;;;-4.71;74.62
45369;BME280;51342;55.250;37.668;2023-02-13T07:52:07;99388.66;;;-4.64;74.74
45369;BME280;51342;55.250;37.668;2023-02-13T07:54:38;99375.63;;;-4.60;74.62
45369;BME280;51342;55.250;37.668;2023-02-13T07:57:17;99373.97;;;-4.53;74.64
45369;BME280;51342;55.250;37.668;2023-02-13T07:59:49;99378.97;;;-4.45;74.61
45369;BME280;51342;55.250;37.668;2023-02-13T08:02:21;99363.22;;;-4.43;74.65
45369;BME280;51342;55.250;37.668;2023-02-13T08:05:02;99363.50;;;-4.33;74.67
45369;BME280;51342;55.250;37.668;2023-02-13T08:07:34;99355.56;;;-4.29;74.64
45369;BME280;51342;55.250;37.668;2023-02-13T08:10:07;99354.59;;;-4.22;74.72
45369;BME280;51342;55.250;37.668;2023-02-13T08:12:59;99356.13;;;-4.15;74.62
45369;BME280;51342;55.250;37.668;2023-02-13T08:15:30;99353.97;;;-4.12;74.57
45369;BME280;51342;55.250;37.668;2023-02-13T08:18:02;99351.03;;;-4.08;74.59
45369;BME280;51342;55.250;37.668;2023-02-13T08:20:34;99347.03;;;-4.06;74.65
45369;BME280;51342;55.250;37.668;2023-02-13T08:23:06;99345.56;;;-4.04;74.72
45369;BME280;51342;55.250;37.668;2023-02-13T08:25:38;99336.84;;;-3.99;74.77
45369;BME280;51342;55.250;37.668;2023-02-13T08:28:10;99342.56;;;-3.93;74.63
45369;BME280;51342;55.250;37.668;2023-02-13T08:30:41;99340.03;;;-3.93;74.77
45369;BME280;51342;55.250;37.668;2023-02-13T08:33:13;99347.53;;;-3.86;74.76
45369;BME280;51342;55.250;37.668;2023-02-13T08:35:44;99343.53;;;-3.84;74.83
45369;BME280;51342;55.250;37.668;2023-02-13T08:38:16;99330.50;;;-3.80;74.61
45369;BME280;51342;55.250;37.668;2023-02-13T08:40:47;99333.19;;;-3.78;74.86
45369;BME280;51342;55.250;37.668;2023-02-13T08:43:18;99336.38;;;-3.72;74.83
45369;BME280;51342;55.250;37.668;2023-02-13T08:45:50;99315.56;;;-3.69;74.90
45369;BME280;51342;55.250;37.668;2023-02-13T08:48:21;99308.06;;;-3.61;74.72
45369;BME280;51342;55.250;37.668;2023-02-13T08:50:53;99309.59;;;-3.54;74.69
45369;BME280;51342;55.250;37.668;2023-02-13T08:53:24;99300.88;;;-3.49;74.83
45369;BME280;51342;55.250;37.668;2023-02-13T08:55:56;99297.03;;;-3.45;74.76
45369;BME280;51342;55.250;37.668;2023-02-13T08:58:28;99282.16;;;-3.42;74.88
45369;BME280;51342;55.250;37.668;2023-02-13T09:01:02;99282.06;;;-3.35;74.86
45369;BME280;51342;55.250;37.668;2023-02-13T09:03:34;99274.81;;;-3.32;74.92
45369;BME280;51342;55.250;37.668;2023-02-13T09:06:06;99278.13;;;-3.25;74.86
45369;BME280;51342;55.250;37.668;2023-02-13T09:08:37;99262.53;;;-3.21;74.64
45369;BME280;51342;55.250;37.668;2023-02-13T09:11:09;99264.06;;;-3.14;74.90
45369;BME280;51342;55.250;37.668;2023-02-13T09:13:40;99261.25;;;-3.08;74.75
45369;BME280;51342;55.250;37.668;2023-02-13T09:16:12;99266.94;;;-3.02;74.72
45369;BME280;51342;55.250;37.668;2023-02-13T09:18:46;99261.13;;;-3.01;74.41
45369;BME280;51342;55.250;37.668;2023-02-13T09:21:19;99264.00;;;-2.98;75.05
45369;BME280;51342;55.250;37.668;2023-02-13T09:23:52;99258.50;;;-2.94;74.55
45369;BME280;51342;55.250;37.668;2023-02-13T09:26:25;99258.81;;;-2.91;74.64
45369;BME280;51342;55.250;37.668;2023-02-13T09:28:56;99250.47;;;-2.90;74.78
45369;BME280;51342;55.250;37.668;2023-02-13T09:31:28;99249.00;;;-2.88;74.72
45369;BME280;51342;55.250;37.668;2023-02-13T09:33:59;99243.69;;;-2.82;74.73
45369;BME280;51342;55.250;37.668;2023-02-13T09:36:30;99236.56;;;-2.78;74.74
45369;BME280;51342;55.250;37.668;2023-02-13T09:39:03;99239.53;;;-2.73;74.77
45369;BME280;51342;55.250;37.668;2023-02-13T09:41:37;99236.56;;;-2.69;74.73
45369;BME280;51342;55.250;37.668;2023-02-13T09:44:16;99231.81;;;-2.66;74.66
45369;BME280;51342;55.250;37.668;2023-02-13T09:47:13;99231.84;;;-2.57;74.60
45369;BME280;51342;55.250;37.668;2023-02-13T09:49:52;99226.34;;;-2.53;74.57
45369;BME280;51342;55.250;37.668;2023-02-13T09:52:32;99217.38;;;-2.50;74.42
45369;BME280;51342;55.250;37.668;2023-02-13T09:55:24;99207.13;;;-2.51;74.53
45369;BME280;51342;55.250;37.668;2023-02-13T10:01:28;99205.38;;;-2.35;74.70
45369;BME280;51342;55.250;37.668;2023-02-13T10:15:33;99175.28;;;-2.06;74.38
45369;BME280;51342;55.250;37.668;2023-02-13T10:18:21;99175.13;;;-1.99;74.11
45369;BME280;51342;55.250;37.668;2023-02-13T10:20:56;99176.16;;;-1.88;74.28
45369;BME280;51342;55.250;37.668;2023-02-13T10:23:36;99167.34;;;-1.83;74.25
45369;BME280;51342;55.250;37.668;2023-02-13T10:26:22;99160.34;;;-1.77;74.04
45369;BME280;51342;55.250;37.668;2023-02-13T10:29:01;99160.66;;;-1.74;74.26
45369;BME280;51342;55.250;37.668;2023-02-13T10:31:54;99160.78;;;-1.72;74.03
45369;BME280;51342;55.250;37.668;2023-02-13T10:34:31;99164.22;;;-1.72;74.13
45369;BME280;51342;55.250;37.668;2023-02-13T10:37:12;99157.34;;;-1.73;74.17
45369;BME280;51342;55.250;37.668;2023-02-13T10:39:49;99155.13;;;-1.70;74.08
45369;BME280;51342;55.250;37.668;2023-02-13T10:45:40;99148.09;;;-1.72;74.20
45369;BME280;51342;55.250;37.668;2023-02-13T10:51:25;99133.50;;;-1.75;74.22
45369;BME280;51342;55.250;37.668;2023-02-13T10:54:23;99147.53;;;-1.70;74.26
45369;BME280;51342;55.250;37.668;2023-02-13T10:57:00;99143.03;;;-1.64;74.44
45369;BME280;51342;55.250;37.668;2023-02-13T11:02:58;99138.84;;;-1.63;74.33
45369;BME280;51342;55.250;37.668;2023-02-13T11:05:37;99131.81;;;-1.66;74.38
45369;BME280;51342;55.250;37.668;2023-02-13T11:08:24;99134.81;;;-1.61;74.46
45369;BME280;51342;55.250;37.668;2023-02-13T11:10:55;99131.06;;;-1.56;74.55
45369;BME280;51342;55.250;37.668;2023-02-13T11:13:28;99128.66;;;-1.54;74.63
45369;BME280;51342;55.250;37.668;2023-02-13T11:16:05;99117.50;;;-1.56;74.55
45369;BME280;51342;55.250;37.668;2023-02-13T11:18:39;99111.66;;;-1.55;74.61
45369;BME280;51342;55.250;37.668;2023-02-13T11:21:22;99096.88;;;-1.51;74.64
45369;BME280;51342;55.250;37.668;2023-02-13T11:23:54;99094.34;;;-1.51;74.79
45369;BME280;51342;55.250;37.668;2023-02-13T11:26:35;99089.72;;;-1.46;74.93
45369;BME280;51342;55.250;37.668;2023-02-13T11:29:19;99071.06;;;-1.47;74.55
45369;BME280;51342;55.250;37.668;2023-02-13T11:32:05;99082.53;;;-1.42;74.88
45369;BME280;51342;55.250;37.668;2023-02-13T11:34:37;99062.63;;;-1.37;74.85
45369;BME280;51342;55.250;37.668;2023-02-13T11:39:45;99057.88;;;-1.34;74.83
45369;BME280;51342;55.250;37.668;2023-02-13T11:44:59;99061.28;;;-1.34;74.61
45369;BME280;51342;55.250;37.668;2023-02-13T11:47:38;99052.03;;;-1.33;74.74
45369;BME280;51342;55.250;37.668;2023-02-13T11:50:31;99057.72;;;-1.36;74.79
45369;BME280;51342;55.250;37.668;2023-02-13T11:53:18;99066.22;;;-1.35;75.06
45369;BME280;51342;55.250;37.668;2023-02-13T11:56:09;99070.41;;;-1.36;74.92
45369;BME280;51342;55.250;37.668;2023-02-13T11:58:41;99063.22;;;-1.31;75.07
45369;BME280;51342;55.250;37.668;2023-02-13T12:06:34;99065.28;;;-1.27;74.99
45369;BME280;51342;55.250;37.668;2023-02-13T12:09:14;99058.44;;;-1.28;75.11
45369;BME280;51342;55.250;37.668;2023-02-13T12:11:53;99042.78;;;-1.33;74.97
45369;BME280;51342;55.250;37.668;2023-02-13T12:14:33;99021.72;;;-1.31;75.12
45369;BME280;51342;55.250;37.668;2023-02-13T12:17:14;99021.59;;;-1.33;75.27
45369;BME280;51342;55.250;37.668;2023-02-13T12:19:49;99037.25;;;-1.28;75.31
45369;BME280;51342;55.250;37.668;2023-02-13T12:22:24;99021.25;;;-1.27;75.51
45369;BME280;51342;55.250;37.668;2023-02-13T12:25:20;99004.13;;;-1.30;75.47
45369;BME280;51342;55.250;37.668;2023-02-13T12:28:02;99007.06;;;-1.25;75.43
45369;BME280;51342;55.250;37.668;2023-02-13T12:33:52;99006.03;;;-1.27;75.34
45369;BME280;51342;55.250;37.668;2023-02-13T12:36:36;99008.25;;;-1.22;75.57
45369;BME280;51342;55.250;37.668;2023-02-13T12:39:38;99008.53;;;-1.19;75.62
45369;BME280;51342;55.250;37.668;2023-02-13T12:47:40;98998.31;;;-1.10;75.47
45369;BME280;51342;55.250;37.668;2023-02-13T12:50:45;98997.56;;;-1.09;75.42
45369;BME280;51342;55.250;37.668;2023-02-13T12:53:44;99000.09;;;-1.09;75.50
45369;BME280;51342;55.250;37.668;2023-02-13T12:59:08;98995.44;;;-1.04;75.40
45369;BME280;51342;55.250;37.668;2023-02-13T13:01:58;98986.94;;;-1.05;75.46
45369;BME280;51342;55.250;37.668;2023-02-13T13:04:58;98975.59;;;-1.09;75.51
45369;BME280;51342;55.250;37.668;2023-02-13T13:08:05;98972.47;;;-1.06;75.52
45369;BME280;51342;55.250;37.668;2023-02-13T13:19:20;98967.84;;;-1.10;75.50
45369;BME280;51342;55.250;37.668;2023-02-13T13:27:32;98959.75;;;-1.06;75.95
45369;BME280;51342;55.250;37.668;2023-02-13T13:30:19;98957.19;;;-1.25;76.21
45369;BME280;51342;55.250;37.668;2023-02-13T13:35:38;98952.50;;;-1.12;75.95
45369;BME280;51342;55.250;37.668;2023-02-13T13:38:27;98943.34;;;-1.10;76.05
45369;BME280;51342;55.250;37.668;2023-02-13T13:41:11;98931.84;;;-1.06;76.05
45369;BME280;51342;55.250;37.668;2023-02-13T13:51:48;98945.22;;;-0.98;76.23
45369;BME280;51342;55.250;37.668;2023-02-13T13:54:24;98943.44;;;-0.99;76.13
45369;BME280;51342;55.250;37.668;2023-02-13T13:57:04;98948.50;;;-0.99;76.31
45369;BME280;51342;55.250;37.668;2023-02-13T14:07:41;98945.97;;;-0.99;76.35
45369;BME280;51342;55.250;37.668;2023-02-13T14:20:50;98934.03;;;-1.00;76.65
45369;BME280;51342;55.250;37.668;2023-02-13T14:26:20;98927.03;;;-1.03;76.70
45369;BME280;51342;55.250;37.668;2023-02-13T14:29:21;98928.06;;;-1.01;76.99
45369;BME280;51342;55.250;37.668;2023-02-13T14:32:13;98922.56;;;-1.05;76.85
45369;BME280;51342;55.250;37.668;2023-02-13T14:34:56;98922.84;;;-1.02;76.87
45369;BME280;51342;55.250;37.668;2023-02-13T14:37:35;98918.69;;;-1.02;76.98
45369;BME280;51342;55.250;37.668;2023-02-13T14:42:50;98903.28;;;-1.03;77.10
45369;BME280;51342;55.250;37.668;2023-02-13T14:45:30;98896.72;;;-1.01;77.23
45369;BME280;51342;55.250;37.668;2023-02-13T14:48:11;98893.13;;;-1.03;77.24
45369;BME280;51342;55.250;37.668;2023-02-13T14:50:49;98887.81;;;-1.07;77.50
45369;BME280;51342;55.250;37.668;2023-02-13T14:53:29;98881.53;;;-1.10;77.59
45369;BME280;51342;55.250;37.668;2023-02-13T14:56:06;98880.94;;;-1.08;77.57
45369;BME280;51342;55.250;37.668;2023-02-13T14:58:51;98875.59;;;-1.29;77.93
45369;BME280;51342;55.250;37.668;2023-02-13T15:01:47;98878.34;;;-1.18;77.83
45369;BME280;51342;55.250;37.668;2023-02-13T15:04:31;98870.84;;;-1.16;78.01
45369;BME280;51342;55.250;37.668;2023-02-13T15:07:18;98870.09;;;-1.15;77.91
45369;BME280;51342;55.250;37.668;2023-02-13T15:10:04;98861.59;;;-1.16;77.93
45369;BME280;51342;55.250;37.668;2023-02-13T15:12:36;98866.19;;;-1.12;78.08
45369;BME280;51342;55.250;37.668;2023-02-13T15:15:29;98856.63;;;-1.14;77.91
45369;BME280;51342;55.250;37.668;2023-02-13T15:18:06;98851.72;;;-1.13;78.21
45369;BME280;51342;55.250;37.668;2023-02-13T15:20:40;98839.91;;;-1.12;78.38
45369;BME280;51342;55.250;37.668;2023-02-13T15:23:26;98837.97;;;-1.15;78.13
45369;BME280;51342;55.250;37.668;2023-02-13T15:26:04;98839.16;;;-1.11;78.44
45369;BME280;51342;55.250;37.668;2023-02-13T15:28:36;98823.81;;;-1.13;78.29
45369;BME280;51342;55.250;37.668;2023-02-13T15:31:21;98822.00;;;-1.14;78.61
45369;BME280;51342;55.250;37.668;2023-02-13T15:33:53;98809.31;;;-1.14;78.78
45369;BME280;51342;55.250;37.668;2023-02-13T15:36:26;98805.41;;;-1.10;78.62
45369;BME280;51342;55.250;37.668;2023-02-13T15:39:05;98797.78;;;-1.10;78.75
45369;BME280;51342;55.250;37.668;2023-02-13T15:41:43;98794.38;;;-1.11;78.53
45369;BME280;51342;55.250;37.668;2023-02-13T15:44:31;98797.91;;;-1.09;78.69
45369;BME280;51342;55.250;37.668;2023-02-13T15:47:08;98795.25;;;-1.10;78.80
45369;BME280;51342;55.250;37.668;2023-02-13T15:49:46;98797.31;;;-1.06;78.80
45369;BME280;51342;55.250;37.668;2023-02-13T15:52:32;98788.81;;;-1.07;78.50
45369;BME280;51342;55.250;37.668;2023-02-13T15:55:05;98784.75;;;-1.04;78.78
45369;BME280;51342;55.250;37.668;2023-02-13T15:57:36;98778.13;;;-1.02;78.81
45369;BME280;51342;55.250;37.668;2023-02-13T16:00:15;98783.22;;;-1.02;78.83
45369;BME280;51342;55.250;37.668;2023-02-13T16:02:51;98771.16;;;-1.05;78.71